createdAt,value
2019-01-21T00:01:45.647Z,76.47
2019-01-21T00:04:15.014Z,76.47
2019-01-21T00:06:44.206Z,76.46
2019-01-21T00:09:13.410Z,76.56
2019-01-21T00:11:43.142Z,76.53
2019-01-21T00:14:12.336Z,76.57
2019-01-21T00:16:41.536Z,76.62
2019-01-21T00:19:11.143Z,76.62
2019-01-21T00:21:40.349Z,76.76
2019-01-21T00:24:09.543Z,76.78
2019-01-21T00:26:39.046Z,76.89
2019-01-21T00:29:10.475Z,76.91
2019-01-21T00:31:39.691Z,76.94
2019-01-21T00:34:09.058Z,77.00
2019-01-21T00:36:38.247Z,76.97
2019-01-21T00:39:08.692Z,77.18
2019-01-21T00:41:38.237Z,77.27
2019-01-21T00:44:07.550Z,77.38
2019-01-21T00:46:37.106Z,77.31
2019-01-21T00:49:06.640Z,77.39
2019-01-21T00:51:35.822Z,77.52
2019-01-21T00:54:05.021Z,77.47
2019-01-21T00:56:34.631Z,77.66
2019-01-21T00:59:03.832Z,77.78
2019-01-21T01:01:33.028Z,77.84
2019-01-21T01:04:02.372Z,77.83
2019-01-21T01:06:31.566Z,77.70
2019-01-21T01:09:00.782Z,77.67
2019-01-21T01:11:30.230Z,77.76
2019-01-21T01:13:59.415Z,78.07
2019-01-21T01:16:28.605Z,78.01
2019-01-21T01:18:58.275Z,77.91
2019-01-21T01:21:27.484Z,78.10
2019-01-21T01:23:56.663Z,78.24
2019-01-21T01:26:26.001Z,78.23
2019-01-21T01:28:55.314Z,78.21
2019-01-21T01:31:24.523Z,78.30
2019-01-21T01:33:54.041Z,78.29
2019-01-21T01:36:23.231Z,78.23
2019-01-21T01:38:52.488Z,78.32
2019-01-21T01:41:21.826Z,78.50
2019-01-21T01:43:51.117Z,78.60
2019-01-21T01:46:20.315Z,78.81
2019-01-21T01:48:49.687Z,78.85
2019-01-21T01:51:18.861Z,79.02
2019-01-21T01:53:48.057Z,78.85
2019-01-21T01:56:17.606Z,78.73
2019-01-21T01:58:47.187Z,78.73
2019-01-21T02:01:16.390Z,78.67
2019-01-21T02:03:45.914Z,78.69
2019-01-21T02:06:17.203Z,78.66
2019-01-21T02:08:46.386Z,78.65
2019-01-21T02:11:17.855Z,78.75
2019-01-21T02:13:47.068Z,78.94
2019-01-21T02:16:16.275Z,78.84
2019-01-21T02:18:45.726Z,78.73
2019-01-21T02:21:15.399Z,78.81
2019-01-21T02:23:48.431Z,78.79
2019-01-21T02:26:22.007Z,78.90
2019-01-21T02:29:32.935Z,78.85
2019-01-21T02:32:49.825Z,78.85
2019-01-21T02:35:31.106Z,78.83
2019-01-21T02:38:25.050Z,78.74
2019-01-21T02:41:15.747Z,78.76
2019-01-21T02:43:58.012Z,78.78
2019-01-21T02:46:42.956Z,78.75
2019-01-21T02:49:47.849Z,78.93
2019-01-21T02:53:00.507Z,78.90
2019-01-21T02:56:24.255Z,79.01
2019-01-21T02:59:22.377Z,79.22
2019-01-21T03:02:44.768Z,79.05
2019-01-21T03:06:09.082Z,79.01
2019-01-21T03:09:13.949Z,79.13
2019-01-21T03:12:22.230Z,78.97
2019-01-21T03:15:28.206Z,79.02
2019-01-21T03:18:34.571Z,79.04
2019-01-21T03:21:57.079Z,79.25
2019-01-21T03:25:06.624Z,79.09
2019-01-21T03:28:11.640Z,79.10
2019-01-21T03:31:16.634Z,79.52
2019-01-21T03:34:14.301Z,79.47
2019-01-21T03:37:20.931Z,79.47
2019-01-21T03:40:09.826Z,79.36
2019-01-21T03:43:22.463Z,79.39
2019-01-21T03:46:13.061Z,79.20
2019-01-21T03:49:07.219Z,79.11
2019-01-21T03:52:22.523Z,79.08
2019-01-21T03:54:56.414Z,79.07
2019-01-21T03:57:38.458Z,79.07
2019-01-21T04:00:46.400Z,79.06
2019-01-21T04:03:51.487Z,79.08
2019-01-21T04:06:52.700Z,79.02
2019-01-21T04:09:47.141Z,78.99
2019-01-21T04:13:13.244Z,79.01
2019-01-21T04:16:18.312Z,79.09
2019-01-21T04:19:23.803Z,79.06
2019-01-21T04:22:31.547Z,79.01
2019-01-21T04:25:32.035Z,78.88
2019-01-21T04:28:26.401Z,78.98
2019-01-21T04:31:47.444Z,78.93
2019-01-21T04:34:59.559Z,79.05
2019-01-21T04:38:14.804Z,78.99
2019-01-21T04:41:26.260Z,78.80
2019-01-21T04:44:30.321Z,78.79
2019-01-21T04:47:18.443Z,78.80
2019-01-21T04:50:24.531Z,78.92
2019-01-21T04:53:22.727Z,78.94
2019-01-21T04:56:44.126Z,78.94
2019-01-21T05:00:12.329Z,78.86
2019-01-21T05:03:17.145Z,78.76
2019-01-21T05:06:21.896Z,78.75
2019-01-21T05:09:31.024Z,78.77
2019-01-21T05:12:41.492Z,78.72
2019-01-21T05:16:04.631Z,78.69
2019-01-21T05:19:04.666Z,78.84
2019-01-21T05:22:32.913Z,78.75
2019-01-21T05:25:26.216Z,78.75
2019-01-21T05:28:38.809Z,78.75
2019-01-21T05:31:19.526Z,78.76
2019-01-21T05:34:45.869Z,78.74
2019-01-21T05:38:02.283Z,78.74
2019-01-21T05:41:08.903Z,78.71
2019-01-21T05:44:17.099Z,78.73
2019-01-21T05:47:36.178Z,78.79
2019-01-21T05:50:40.969Z,78.88
2019-01-21T05:53:45.895Z,78.85
2019-01-21T05:56:44.088Z,78.80
2019-01-21T05:59:55.800Z,78.74
2019-01-21T06:03:12.100Z,78.70
2019-01-21T06:06:25.851Z,78.71
2019-01-21T06:09:15.480Z,78.80
2019-01-21T06:12:10.535Z,78.88
2019-01-21T06:15:09.664Z,78.91
2019-01-21T06:17:53.258Z,78.94
2019-01-21T06:21:11.078Z,78.89
2019-01-21T06:24:45.751Z,78.95
2019-01-21T06:27:29.311Z,78.81
2019-01-21T06:30:23.571Z,78.81
2019-01-21T06:33:20.722Z,78.69
2019-01-21T06:36:32.909Z,78.85
2019-01-21T06:39:44.828Z,78.89
2019-01-21T06:42:53.326Z,78.86
2019-01-21T06:45:45.881Z,78.84
2019-01-21T06:49:14.776Z,78.90
2019-01-21T06:52:17.846Z,78.80
2019-01-21T06:55:46.501Z,78.81
2019-01-21T06:59:02.751Z,78.88
2019-01-21T07:02:03.755Z,78.85
2019-01-21T07:04:56.652Z,78.94
2019-01-21T07:08:06.930Z,78.99
2019-01-21T07:10:59.765Z,78.97
2019-01-21T07:14:08.997Z,78.91
2019-01-21T07:17:34.935Z,78.88
2019-01-21T07:20:50.438Z,78.90
2019-01-21T07:24:14.316Z,78.84
2019-01-21T07:27:24.117Z,78.80
2019-01-21T07:30:35.190Z,78.72
2019-01-21T07:33:42.405Z,78.73
2019-01-21T07:36:25.573Z,78.82
2019-01-21T07:39:35.890Z,78.82
2019-01-21T07:42:29.415Z,78.92
2019-01-21T07:45:42.643Z,78.97
2019-01-21T07:48:39.778Z,79.08
2019-01-21T07:51:40.173Z,79.12
2019-01-21T07:54:35.500Z,79.18
2019-01-21T07:57:54.760Z,79.22
2019-01-21T08:00:59.832Z,79.14
2019-01-21T08:03:59.289Z,79.10
2019-01-21T08:07:14.517Z,79.05
2019-01-21T08:10:34.777Z,79.10
2019-01-21T08:13:23.023Z,79.07
2019-01-21T08:16:45.552Z,79.11
2019-01-21T08:19:43.045Z,79.19
2019-01-21T08:22:44.679Z,79.28
2019-01-21T08:26:03.478Z,79.40
2019-01-21T08:29:09.920Z,79.48
2019-01-21T08:31:59.627Z,79.64
2019-01-21T08:35:08.511Z,79.87
2019-01-21T08:38:15.710Z,80.01
2019-01-21T08:41:27.683Z,79.99
2019-01-21T08:44:55.905Z,79.84
2019-01-21T08:47:38.595Z,79.75
2019-01-21T08:50:52.074Z,79.41
2019-01-21T08:54:01.832Z,79.29
2019-01-21T08:57:07.833Z,79.24
2019-01-21T09:00:04.076Z,79.25
2019-01-21T09:03:14.612Z,79.24
2019-01-21T09:06:37.430Z,79.18
2019-01-21T09:09:37.486Z,79.09
2019-01-21T09:12:50.843Z,79.00
2019-01-21T09:15:37.296Z,78.96
2019-01-21T09:18:42.495Z,78.92
2019-01-21T09:21:40.111Z,78.88
2019-01-21T09:24:50.718Z,78.82
2019-01-21T09:27:55.278Z,78.83
2019-01-21T09:30:51.987Z,78.61
2019-01-21T09:33:58.736Z,78.44
2019-01-21T09:37:14.969Z,78.42
2019-01-21T09:40:09.890Z,78.70
2019-01-21T09:43:10.500Z,78.79
2019-01-21T09:46:16.676Z,78.83
2019-01-21T09:48:44.641Z,78.81
2019-01-21T09:51:17.189Z,78.63
2019-01-21T09:53:51.372Z,78.57
2019-01-21T09:56:22.072Z,78.61
2019-01-21T09:58:54.939Z,78.67
2019-01-21T10:01:26.463Z,78.81
2019-01-21T10:03:56.254Z,78.83
2019-01-21T10:06:34.255Z,78.79
2019-01-21T10:09:30.444Z,78.70
2019-01-21T10:12:40.643Z,78.79
2019-01-21T10:15:44.346Z,78.59
2019-01-21T10:18:42.756Z,78.43
2019-01-21T10:21:36.763Z,78.33
2019-01-21T10:24:43.753Z,78.23
2019-01-21T10:27:38.742Z,78.25
2019-01-21T10:30:49.367Z,78.29
2019-01-21T10:33:46.835Z,78.22
2019-01-21T10:37:09.073Z,78.19
2019-01-21T10:40:46.827Z,78.14
2019-01-21T10:43:57.029Z,77.95
2019-01-21T10:47:08.868Z,77.82
2019-01-21T10:50:10.341Z,77.76
2019-01-21T10:53:07.691Z,77.65
2019-01-21T10:55:59.168Z,77.62
2019-01-21T10:58:47.533Z,77.53
2019-01-21T11:02:11.804Z,77.56
2019-01-21T11:05:12.671Z,77.59
2019-01-21T11:08:22.426Z,77.47
2019-01-21T11:11:32.604Z,77.43
2019-01-21T11:14:28.318Z,77.25
2019-01-21T11:17:26.241Z,77.22
2019-01-21T11:20:45.615Z,77.17
2019-01-21T11:23:51.525Z,77.18
2019-01-21T11:26:46.554Z,77.07
2019-01-21T11:30:15.410Z,77.09
2019-01-21T11:33:37.994Z,77.16
2019-01-21T11:36:59.907Z,77.16
2019-01-21T11:40:04.673Z,77.02
2019-01-21T11:42:58.425Z,76.95
2019-01-21T11:46:09.054Z,76.92
2019-01-21T11:49:09.303Z,76.97
2019-01-21T11:52:34.459Z,76.84
2019-01-21T11:55:48.456Z,76.77
2019-01-21T11:58:44.945Z,76.65
2019-01-21T12:01:56.170Z,76.56
2019-01-21T12:04:47.232Z,76.61
2019-01-21T12:07:41.358Z,76.54
2019-01-21T12:10:40.432Z,76.49
2019-01-21T12:13:24.709Z,76.37
2019-01-21T12:16:44.180Z,76.34
2019-01-21T12:19:51.987Z,76.34
2019-01-21T12:23:01.426Z,76.33
2019-01-21T12:26:09.898Z,76.37
2019-01-21T12:28:52.196Z,76.24
2019-01-21T12:32:07.115Z,76.15
2019-01-21T12:34:53.696Z,76.10
2019-01-21T12:38:12.898Z,76.12
2019-01-21T12:41:23.089Z,76.19
2019-01-21T12:44:09.678Z,76.07
2019-01-21T12:47:00.521Z,76.06
2019-01-21T12:50:15.837Z,76.02
2019-01-21T12:52:52.657Z,75.95
2019-01-21T12:56:18.107Z,75.96
2019-01-21T12:59:20.068Z,75.93
2019-01-21T13:02:24.235Z,75.83
2019-01-21T13:05:17.747Z,75.72
2019-01-21T13:08:15.629Z,75.62
2019-01-21T13:10:56.913Z,75.69
2019-01-21T13:14:22.864Z,75.74
2019-01-21T13:17:16.943Z,75.79
2019-01-21T13:20:36.464Z,75.72
2019-01-21T13:23:32.495Z,75.77
2019-01-21T13:26:45.849Z,75.70
2019-01-21T13:29:23.539Z,75.63
2019-01-21T13:32:28.411Z,75.70
2019-01-21T13:35:25.657Z,75.75
2019-01-21T13:38:33.367Z,75.78
2019-01-21T13:41:51.986Z,75.87
2019-01-21T13:44:56.553Z,75.87
2019-01-21T13:48:11.932Z,75.78
2019-01-21T13:51:00.892Z,75.82
2019-01-21T13:54:28.034Z,75.74
2019-01-21T13:57:47.073Z,75.75
2019-01-21T14:00:51.834Z,75.71
2019-01-21T14:04:00.060Z,75.73
2019-01-21T14:07:08.506Z,75.74
2019-01-21T14:10:12.811Z,75.75
2019-01-21T14:13:06.147Z,75.75
2019-01-21T14:16:19.313Z,75.81
2019-01-21T14:19:12.633Z,75.96
2019-01-21T14:22:21.431Z,75.98
2019-01-21T14:25:26.024Z,75.96
2019-01-21T14:28:31.967Z,75.92
2019-01-21T14:32:00.646Z,76.03
2019-01-21T14:35:02.026Z,76.07
2019-01-21T14:38:21.540Z,76.11
2019-01-21T14:41:14.289Z,76.14
2019-01-21T14:44:12.426Z,76.14
2019-01-21T14:47:47.952Z,76.17
2019-01-21T14:51:03.312Z,76.20
2019-01-21T14:54:17.823Z,76.12
2019-01-21T14:57:13.339Z,76.10
2019-01-21T15:00:08.651Z,76.05
2019-01-21T15:03:17.935Z,76.09
2019-01-21T15:06:30.115Z,76.12
2019-01-21T15:09:23.678Z,76.17
2019-01-21T15:12:23.901Z,76.20
2019-01-21T15:15:37.455Z,76.23
2019-01-21T15:18:42.530Z,76.20
2019-01-21T15:21:35.108Z,76.17
2019-01-21T15:24:33.458Z,76.24
2019-01-21T15:27:19.854Z,76.30
2019-01-21T15:30:39.430Z,76.27
2019-01-21T15:33:31.672Z,76.33
2019-01-21T15:36:43.004Z,76.28
2019-01-21T15:39:45.862Z,76.33
2019-01-21T15:42:32.408Z,76.37
2019-01-21T15:45:41.127Z,76.39
2019-01-21T15:49:00.864Z,76.43
2019-01-21T15:52:10.244Z,76.46
2019-01-21T15:55:11.037Z,76.38
2019-01-21T15:58:03.141Z,76.42
2019-01-21T16:01:22.774Z,76.40
2019-01-21T16:04:04.172Z,76.42
2019-01-21T16:07:29.444Z,76.52
2019-01-21T16:10:25.319Z,76.56
2019-01-21T16:13:31.860Z,76.53
2019-01-21T16:16:32.659Z,76.62
2019-01-21T16:19:11.628Z,76.65
2019-01-21T16:22:16.759Z,76.60
2019-01-21T16:25:33.533Z,76.69
2019-01-21T16:28:36.940Z,76.64
2019-01-21T16:31:29.511Z,76.65
2019-01-21T16:34:30.822Z,76.74
2019-01-21T16:37:11.546Z,76.83
2019-01-21T16:40:20.223Z,76.88
2019-01-21T16:42:49.583Z,76.89
2019-01-21T16:45:21.116Z,76.88
2019-01-21T16:47:50.460Z,76.94
2019-01-21T16:50:21.728Z,77.04
2019-01-21T16:52:53.599Z,77.13
2019-01-21T16:55:22.855Z,77.15
2019-01-21T16:57:52.130Z,77.24
2019-01-21T17:00:21.521Z,77.25
2019-01-21T17:02:50.864Z,77.29
2019-01-21T17:05:21.095Z,77.35
2019-01-21T17:07:51.619Z,77.43
2019-01-21T17:10:20.994Z,77.55
2019-01-21T17:12:51.422Z,77.54
2019-01-21T17:15:20.772Z,77.53
2019-01-21T17:17:51.351Z,77.54
2019-01-21T17:20:22.717Z,77.58
2019-01-21T17:22:51.995Z,77.62
2019-01-21T17:25:21.510Z,77.55
2019-01-21T17:27:50.914Z,77.55
2019-01-21T17:30:20.164Z,77.58
2019-01-21T17:32:50.487Z,77.62
2019-01-21T17:35:20.138Z,77.56
2019-01-21T17:37:50.656Z,77.58
2019-01-21T17:40:20.210Z,77.58
2019-01-21T17:42:50.052Z,77.68
2019-01-21T17:45:23.183Z,77.78
2019-01-21T17:47:52.735Z,77.91
2019-01-21T17:50:23.914Z,78.01
2019-01-21T17:52:53.957Z,78.12
2019-01-21T17:55:23.856Z,78.13
2019-01-21T17:57:53.067Z,78.14
2019-01-21T18:00:23.958Z,78.17
2019-01-21T18:02:53.272Z,78.19
2019-01-21T18:05:24.024Z,78.25
2019-01-21T18:07:53.797Z,78.35
2019-01-21T18:10:23.007Z,78.34
2019-01-21T18:12:52.245Z,78.38
2019-01-21T18:15:21.562Z,78.37
2019-01-21T18:17:50.748Z,78.43
2019-01-21T18:20:22.936Z,78.42
2019-01-21T18:22:52.157Z,78.46
2019-01-21T18:25:21.388Z,78.46
2019-01-21T18:27:50.758Z,78.45
2019-01-21T18:30:25.394Z,78.41
2019-01-21T18:32:54.670Z,78.48
2019-01-21T18:35:25.329Z,78.53
2019-01-21T18:37:55.548Z,78.58
2019-01-21T18:40:24.810Z,78.58
2019-01-21T18:42:54.019Z,78.58
2019-01-21T18:45:26.006Z,78.64
2019-01-21T18:47:55.361Z,78.59
2019-01-21T18:50:24.529Z,78.67
2019-01-21T18:52:54.397Z,78.67
2019-01-21T18:55:23.620Z,78.71
2019-01-21T18:57:55.943Z,78.74
2019-01-21T19:00:25.742Z,78.80
2019-01-21T19:02:55.243Z,78.78
2019-01-21T19:05:27.152Z,78.78
2019-01-21T19:07:56.380Z,78.77
2019-01-21T19:10:25.590Z,78.77
2019-01-21T19:12:55.181Z,78.84
2019-01-21T19:15:31.285Z,78.86
2019-01-21T19:18:00.916Z,78.87
2019-01-21T19:20:30.320Z,78.88
2019-01-21T19:22:59.556Z,78.94
2019-01-21T19:25:29.029Z,78.96
2019-01-21T19:27:58.251Z,78.95
2019-01-21T19:30:28.197Z,78.94
2019-01-21T19:32:59.129Z,78.99
2019-01-21T19:35:33.671Z,78.98
2019-01-21T19:38:02.981Z,79.00
2019-01-21T19:40:32.296Z,79.02
2019-01-21T19:43:01.539Z,78.99
2019-01-21T19:45:31.018Z,78.97
2019-01-21T19:48:00.262Z,79.01
2019-01-21T19:50:29.515Z,79.04
2019-01-21T19:52:58.907Z,79.07
2019-01-21T19:55:34.509Z,79.11
2019-01-21T19:58:03.799Z,79.10
2019-01-21T20:00:33.143Z,79.12
2019-01-21T20:03:02.580Z,79.04
2019-01-21T20:05:32.162Z,79.14
2019-01-21T20:08:01.359Z,79.16
2019-01-21T20:10:31.100Z,79.14
2019-01-21T20:13:02.112Z,79.11
2019-01-21T20:15:31.408Z,79.11
2019-01-21T20:18:00.634Z,79.14
2019-01-21T20:20:35.949Z,79.14
2019-01-21T20:23:05.192Z,79.14
2019-01-21T20:25:34.495Z,79.17
2019-01-21T20:28:03.888Z,79.22
2019-01-21T20:30:33.145Z,79.26
2019-01-21T20:33:02.309Z,79.29
2019-01-21T20:35:31.709Z,79.34
2019-01-21T20:38:00.988Z,79.35
2019-01-21T20:40:30.236Z,79.32
2019-01-21T20:42:59.619Z,79.33
2019-01-21T20:45:28.843Z,79.33
2019-01-21T20:47:58.037Z,79.40
2019-01-21T20:50:29.690Z,79.43
2019-01-21T20:52:59.066Z,79.47
2019-01-21T20:55:28.362Z,79.47
2019-01-21T20:57:57.678Z,79.50
2019-01-21T21:00:29.411Z,79.49
2019-01-21T21:02:59.366Z,79.48
2019-01-21T21:05:28.577Z,79.46
2019-01-21T21:07:58.407Z,79.48
2019-01-21T21:10:27.792Z,79.52
2019-01-21T21:12:57.124Z,79.58
2019-01-21T21:15:29.247Z,79.58
2019-01-21T21:17:58.491Z,79.65
2019-01-21T21:20:27.792Z,79.67
2019-01-21T21:22:57.114Z,79.68
2019-01-21T21:25:26.520Z,79.69
2019-01-21T21:27:55.712Z,79.69
2019-01-21T21:30:32.829Z,79.67
2019-01-21T21:33:02.043Z,79.70
2019-01-21T21:35:31.252Z,79.75
2019-01-21T21:38:00.804Z,79.74
2019-01-21T21:40:29.998Z,79.75
2019-01-21T21:43:00.974Z,79.67
2019-01-21T21:45:30.410Z,79.69
2019-01-21T21:48:02.796Z,79.75
2019-01-21T21:50:33.447Z,79.77
2019-01-21T21:53:02.774Z,79.81
2019-01-21T21:55:32.104Z,79.80
2019-01-21T21:58:01.584Z,79.80
2019-01-21T22:00:31.016Z,79.85
2019-01-21T22:03:00.228Z,79.88
2019-01-21T22:05:32.136Z,79.90
2019-01-21T22:08:01.382Z,79.91
2019-01-21T22:10:30.895Z,79.91
2019-01-21T22:13:00.345Z,79.93
2019-01-21T22:15:29.704Z,79.96
2019-01-21T22:17:58.921Z,79.98
2019-01-21T22:20:28.765Z,79.99
2019-01-21T22:22:58.113Z,80.07
2019-01-21T22:25:27.340Z,80.12
2019-01-21T22:27:56.632Z,80.17
2019-01-21T22:30:27.837Z,80.19
2019-01-21T22:32:57.302Z,80.19
2019-01-21T22:35:26.533Z,80.19
2019-01-21T22:37:55.823Z,80.27
2019-01-21T22:40:25.298Z,80.26
2019-01-21T22:42:54.484Z,80.29
2019-01-21T22:45:25.648Z,80.32
2019-01-21T22:47:55.045Z,80.33
2019-01-21T22:50:24.254Z,80.30
2019-01-21T22:52:53.775Z,80.32
2019-01-21T22:55:23.069Z,80.36
2019-01-21T22:57:52.265Z,80.40
2019-01-21T23:00:55.950Z,80.41
2019-01-21T23:03:28.562Z,80.40
2019-01-21T23:05:58.033Z,80.30
2019-01-21T23:08:27.364Z,80.31
2019-01-21T23:10:56.626Z,80.31
2019-01-21T23:13:27.966Z,80.34
2019-01-21T23:15:57.182Z,80.41
2019-01-21T23:18:26.776Z,80.46
2019-01-21T23:20:56.185Z,80.44
2019-01-21T23:23:25.798Z,80.43
2019-01-21T23:25:54.992Z,80.45
2019-01-21T23:28:24.284Z,80.48
2019-01-21T23:30:53.721Z,80.49
2019-01-21T23:33:23.404Z,80.52
2019-01-21T23:35:52.602Z,80.49
2019-01-21T23:38:21.912Z,80.47
2019-01-21T23:40:51.105Z,80.48
2019-01-21T23:43:20.390Z,80.50
2019-01-21T23:45:50.265Z,80.54
2019-01-21T23:48:19.443Z,80.53
2019-01-21T23:50:48.726Z,80.59
2019-01-21T23:53:18.235Z,80.56
2019-01-21T23:55:47.432Z,80.60
2019-01-21T23:58:16.608Z,80.61
